Time;durP1;ratioP1;P1;durP2;ratioP2;P2;SDS_P1;SDS_P2;PMS_P1;PMS_P2;Temp;Humidity;BMP_temperature;BMP_pressure;BME280_temperature;BME280_humidity;BME280_pressure;Samples;Min_cycle;Max_cycle;Signal;HPM_P1;HPM_P2
2019/06/05 00:00:58;;;;;;;10.55;9.450002;;;;;;;15.07;74.44434;94531.62;;;;
2019/06/05 00:01:59;;;;;;;10.55;9.450002;;;;;;;15.07;74.44434;94531.62;;;;
2019/06/05 00:03:00;;;;;;;10.55;9.450002;;;;;;;15.07;74.44434;94531.62;;;;
2019/06/05 00:04:01;;;;;;;10.65;9.65;;;;;;;14.9;75.09668;94530.77;;;;
2019/06/05 00:05:02;;;;;;;10.65;9.65;;;;;;;14.9;75.09668;94530.77;;;;
2019/06/05 00:06:03;;;;;;;10.65;9.65;;;;;;;14.9;75.09668;94530.77;;;;
2019/06/05 00:07:04;;;;;;;10.65;9.65;;;;;;;14.9;75.09668;94530.77;;;;
2019/06/05 00:08:05;;;;;;;10.65;9.65;;;;;;;14.9;75.09668;94530.77;;;;
2019/06/05 00:09:06;;;;;;;10.65;9.65;;;;;;;14.9;75.09668;94530.77;;;;
2019/06/05 00:10:07;;;;;;;10.65;9.65;;;;;;;14.9;75.09668;94530.77;;;;
2019/06/05 00:11:09;;;;;;;10.65;9.65;;;;;;;14.9;75.09668;94530.77;;;;
2019/06/05 00:12:10;;;;;;;10.65;9.65;;;;;;;14.9;75.09668;94530.77;;;;
2019/06/05 00:13:11;;;;;;;10.65;9.65;;;;;;;14.9;75.09668;94530.77;;;;
2019/06/05 00:14:12;;;;;;;10.55;9.45;;;;;;;14.8;75.8584;94519.84;;;;
2019/06/05 00:15:13;;;;;;;10.55;9.45;;;;;;;14.8;75.8584;94519.84;;;;
2019/06/05 00:16:14;;;;;;;10.55;9.45;;;;;;;14.8;75.8584;94519.84;;;;
2019/06/05 00:17:15;;;;;;;10.55;9.45;;;;;;;14.8;75.8584;94519.84;;;;
2019/06/05 00:18:16;;;;;;;10.55;9.45;;;;;;;14.8;75.8584;94519.84;;;;
2019/06/05 00:19:17;;;;;;;10.55;9.45;;;;;;;14.8;75.8584;94519.84;;;;
2019/06/05 00:20:18;;;;;;;10.55;9.45;;;;;;;14.8;75.8584;94519.84;;;;
2019/06/05 00:21:19;;;;;;;10.55;9.45;;;;;;;14.8;75.8584;94519.84;;;;
2019/06/05 00:22:31;;;;;;;10.55;9.45;;;;;;;14.8;75.8584;94519.84;;;;
2019/06/05 00:23:33;;;;;;;10.55;9.45;;;;;;;14.8;75.8584;94519.84;;;;
2019/06/05 00:24:34;;;;;;;10.35;9.35;;;;;;;14.64;76.62793;94516.52;;;;
2019/06/05 00:25:59;;;;;;;10.35;9.35;;;;;;;14.64;76.62793;94516.52;;;;
2019/06/05 00:27:00;;;;;;;10.35;9.35;;;;;;;14.64;76.62793;94516.52;;;;
2019/06/05 00:28:01;;;;;;;10.35;9.35;;;;;;;14.64;76.62793;94516.52;;;;
2019/06/05 00:29:02;;;;;;;10.35;9.35;;;;;;;14.64;76.62793;94516.52;;;;
2019/06/05 00:30:03;;;;;;;10.35;9.35;;;;;;;14.64;76.62793;94516.52;;;;
2019/06/05 00:31:06;;;;;;;10.35;9.35;;;;;;;14.64;76.62793;94516.52;;;;
2019/06/05 00:32:07;;;;;;;10.35;9.35;;;;;;;14.64;76.62793;94516.52;;;;
2019/06/05 00:33:08;;;;;;;10.35;9.35;;;;;;;14.64;76.62793;94516.52;;;;
2019/06/05 00:34:09;;;;;;;10.35;9.35;;;;;;;14.64;76.62793;94516.52;;;;
2019/06/05 00:35:10;;;;;;;10.25;9.25;;;;;;;14.58;77.14648;94521.7;;;;
2019/06/05 00:36:11;;;;;;;10.25;9.25;;;;;;;14.58;77.14648;94521.7;;;;
2019/06/05 00:37:12;;;;;;;10.25;9.25;;;;;;;14.58;77.14648;94521.7;;;;
2019/06/05 00:38:14;;;;;;;10.25;9.25;;;;;;;14.58;77.14648;94521.7;;;;
2019/06/05 00:39:15;;;;;;;10.25;9.25;;;;;;;14.58;77.14648;94521.7;;;;
2019/06/05 00:40:16;;;;;;;10.25;9.25;;;;;;;14.58;77.14648;94521.7;;;;
2019/06/05 00:41:17;;;;;;;10.25;9.25;;;;;;;14.58;77.14648;94521.7;;;;
2019/06/05 00:42:18;;;;;;;10.25;9.25;;;;;;;14.58;77.14648;94521.7;;;;
2019/06/05 00:43:19;;;;;;;10.25;9.25;;;;;;;14.58;77.14648;94521.7;;;;
2019/06/05 00:44:20;;;;;;;10.25;9.25;;;;;;;14.58;77.14648;94521.7;;;;
2019/06/05 00:45:21;;;;;;;10.25;9.25;;;;;;;14.58;77.14648;94521.7;;;;
2019/06/05 00:46:22;;;;;;;10.5;9.5;;;;;;;14.43;77.68164;94501.79;;;;
2019/06/05 00:47:23;;;;;;;10.5;9.5;;;;;;;14.43;77.68164;94501.79;;;;
2019/06/05 00:48:24;;;;;;;10.5;9.5;;;;;;;14.43;77.68164;94501.79;;;;
2019/06/05 00:49:25;;;;;;;10.5;9.5;;;;;;;14.43;77.68164;94501.79;;;;
2019/06/05 00:50:26;;;;;;;10.5;9.5;;;;;;;14.43;77.68164;94501.79;;;;
2019/06/05 00:51:27;;;;;;;10.5;9.5;;;;;;;14.43;77.68164;94501.79;;;;
2019/06/05 00:52:29;;;;;;;10.5;9.5;;;;;;;14.43;77.68164;94501.79;;;;
2019/06/05 00:53:30;;;;;;;10.5;9.5;;;;;;;14.43;77.68164;94501.79;;;;
2019/06/05 00:54:31;;;;;;;10.5;9.5;;;;;;;14.43;77.68164;94501.79;;;;
2019/06/05 00:55:32;;;;;;;10.5;9.5;;;;;;;14.43;77.68164;94501.79;;;;
2019/06/05 00:56:33;;;;;;;9.799999;8.899999;;;;;;;14.35;78.07617;94500.22;;;;
2019/06/05 00:57:34;;;;;;;9.799999;8.899999;;;;;;;14.35;78.07617;94500.22;;;;
2019/06/05 00:58:35;;;;;;;9.799999;8.899999;;;;;;;14.35;78.07617;94500.22;;;;
2019/06/05 00:59:36;;;;;;;9.799999;8.899999;;;;;;;14.35;78.07617;94500.22;;;;
2019/06/05 01:00:37;;;;;;;9.799999;8.899999;;;;;;;14.35;78.07617;94500.22;;;;
2019/06/05 01:01:38;;;;;;;9.799999;8.899999;;;;;;;14.35;78.07617;94500.22;;;;
2019/06/05 01:02:39;;;;;;;9.799999;8.899999;;;;;;;14.35;78.07617;94500.22;;;;
2019/06/05 01:03:40;;;;;;;9.799999;8.899999;;;;;;;14.35;78.07617;94500.22;;;;
2019/06/05 01:04:42;;;;;;;9.799999;8.899999;;;;;;;14.35;78.07617;94500.22;;;;
2019/06/05 01:05:43;;;;;;;9.799999;8.899999;;;;;;;14.35;78.07617;94500.22;;;;
2019/06/05 01:06:44;;;;;;;9.799999;8.899999;;;;;;;14.35;78.07617;94500.22;;;;
2019/06/05 01:07:45;;;;;;;9.799999;8.899999;;;;;;;14.35;78.07617;94500.22;;;;
2019/06/05 01:08:46;;;;;;;9.799999;8.899999;;;;;;;14.35;78.07617;94500.22;;;;
2019/06/05 01:09:47;;;;;;;9.799999;8.899999;;;;;;;14.35;78.07617;94500.22;;;;
2019/06/05 01:10:49;;;;;;;9.799999;8.899999;;;;;;;14.35;78.07617;94500.22;;;;
2019/06/05 01:11:50;;;;;;;9.799999;8.899999;;;;;;;14.35;78.07617;94500.22;;;;
2019/06/05 01:12:51;;;;;;;9.799999;8.899999;;;;;;;14.35;78.07617;94500.22;;;;
2019/06/05 01:13:52;;;;;;;9.799999;8.899999;;;;;;;14.35;78.07617;94500.22;;;;
2019/06/05 01:14:53;;;;;;;9.799999;8.899999;;;;;;;14.35;78.07617;94500.22;;;;
2019/06/05 01:15:54;;;;;;;9.799999;8.899999;;;;;;;14.35;78.07617;94500.22;;;;
2019/06/05 01:16:55;;;;;;;9.799999;8.899999;;;;;;;14.35;78.07617;94500.22;;;;
2019/06/05 01:17:56;;;;;;;10.9;9.899999;;;;;;;14.14;79.10645;94499.05;;;;
2019/06/05 01:18:58;;;;;;;10.9;9.899999;;;;;;;14.14;79.10645;94499.05;;;;
2019/06/05 01:19:59;;;;;;;10.9;9.899999;;;;;;;14.14;79.10645;94499.05;;;;
2019/06/05 01:21:00;;;;;;;10.9;9.899999;;;;;;;14.14;79.10645;94499.05;;;;
2019/06/05 01:22:01;;;;;;;10.9;9.899999;;;;;;;14.14;79.10645;94499.05;;;;
2019/06/05 01:23:02;;;;;;;10.9;9.899999;;;;;;;14.14;79.10645;94499.05;;;;
2019/06/05 01:24:03;;;;;;;10.9;9.899999;;;;;;;14.14;79.10645;94499.05;;;;
2019/06/05 01:25:05;;;;;;;10.9;9.899999;;;;;;;14.14;79.10645;94499.05;;;;
2019/06/05 01:26:06;;;;;;;10.9;9.899999;;;;;;;14.14;79.10645;94499.05;;;;
2019/06/05 01:27:07;;;;;;;10.9;9.899999;;;;;;;14.14;79.10645;94499.05;;;;
2019/06/05 01:28:08;;;;;;;10.6;9.599999;;;;;;;13.98;79.71289;94483.87;;;;
2019/06/05 01:29:09;;;;;;;10.6;9.599999;;;;;;;13.98;79.71289;94483.87;;;;
2019/06/05 01:30:10;;;;;;;10.6;9.599999;;;;;;;13.98;79.71289;94483.87;;;;
2019/06/05 01:31:11;;;;;;;10.6;9.599999;;;;;;;13.98;79.71289;94483.87;;;;
2019/06/05 01:32:13;;;;;;;10.6;9.599999;;;;;;;13.98;79.71289;94483.87;;;;
2019/06/05 01:33:14;;;;;;;10.6;9.599999;;;;;;;13.98;79.71289;94483.87;;;;
2019/06/05 01:34:15;;;;;;;10.6;9.599999;;;;;;;13.98;79.71289;94483.87;;;;
2019/06/05 01:35:16;;;;;;;10.6;9.599999;;;;;;;13.98;79.71289;94483.87;;;;
2019/06/05 01:36:17;;;;;;;10.6;9.599999;;;;;;;13.98;79.71289;94483.87;;;;
2019/06/05 01:37:30;;;;;;;10.6;9.599999;;;;;;;13.98;79.71289;94483.87;;;;
2019/06/05 01:38:32;;;;;;;10.9;9.9;;;;;;;13.9;80.22656;94489.89;;;;
2019/06/05 01:39:33;;;;;;;10.9;9.9;;;;;;;13.9;80.22656;94489.89;;;;
2019/06/05 01:40:34;;;;;;;10.9;9.9;;;;;;;13.9;80.22656;94489.89;;;;
2019/06/05 01:41:35;;;;;;;10.9;9.9;;;;;;;13.9;80.22656;94489.89;;;;
2019/06/05 01:42:36;;;;;;;10.9;9.9;;;;;;;13.9;80.22656;94489.89;;;;
2019/06/05 01:43:37;;;;;;;10.9;9.9;;;;;;;13.9;80.22656;94489.89;;;;
2019/06/05 01:44:38;;;;;;;10.9;9.9;;;;;;;13.9;80.22656;94489.89;;;;
2019/06/05 01:45:40;;;;;;;10.9;9.9;;;;;;;13.9;80.22656;94489.89;;;;
2019/06/05 01:46:41;;;;;;;10.9;9.9;;;;;;;13.9;80.22656;94489.89;;;;
2019/06/05 01:47:42;;;;;;;10.9;9.9;;;;;;;13.9;80.22656;94489.89;;;;
2019/06/05 01:48:43;;;;;;;10.9;9.9;;;;;;;13.9;80.22656;94489.89;;;;
2019/06/05 01:49:44;;;;;;;10.9;9.9;;;;;;;13.9;80.22656;94489.89;;;;
2019/06/05 01:50:45;;;;;;;10.9;9.9;;;;;;;13.9;80.22656;94489.89;;;;
2019/06/05 01:51:46;;;;;;;10.9;9.9;;;;;;;13.9;80.22656;94489.89;;;;
2019/06/05 01:52:48;;;;;;;10.9;9.9;;;;;;;13.9;80.22656;94489.89;;;;
2019/06/05 01:53:49;;;;;;;10.9;9.9;;;;;;;13.9;80.22656;94489.89;;;;
2019/06/05 01:54:50;;;;;;;10.9;9.9;;;;;;;13.9;80.22656;94489.89;;;;
2019/06/05 01:55:51;;;;;;;10.9;9.9;;;;;;;13.9;80.22656;94489.89;;;;
2019/06/05 01:56:53;;;;;;;10.9;9.9;;;;;;;13.9;80.22656;94489.89;;;;
2019/06/05 01:57:54;;;;;;;10.9;9.9;;;;;;;13.9;80.22656;94489.89;;;;
2019/06/05 01:58:55;;;;;;;10.9;9.9;;;;;;;13.9;80.22656;94489.89;;;;
2019/06/05 01:59:56;;;;;;;11.85;10.75;;;;;;;13.69;81.5332;94494.94;;;;
2019/06/05 02:00:57;;;;;;;11.85;10.75;;;;;;;13.69;81.5332;94494.94;;;;
2019/06/05 02:01:58;;;;;;;11.85;10.75;;;;;;;13.69;81.5332;94494.94;;;;
2019/06/05 02:02:59;;;;;;;11.85;10.75;;;;;;;13.69;81.5332;94494.94;;;;
2019/06/05 02:04:00;;;;;;;11.85;10.75;;;;;;;13.69;81.5332;94494.94;;;;
2019/06/05 02:05:02;;;;;;;11.85;10.75;;;;;;;13.69;81.5332;94494.94;;;;
2019/06/05 02:06:04;;;;;;;11.85;10.75;;;;;;;13.69;81.5332;94494.94;;;;
2019/06/05 02:07:05;;;;;;;11.85;10.75;;;;;;;13.69;81.5332;94494.94;;;;
2019/06/05 02:08:07;;;;;;;11.85;10.75;;;;;;;13.69;81.5332;94494.94;;;;
2019/06/05 02:09:08;;;;;;;11.85;10.75;;;;;;;13.69;81.5332;94494.94;;;;
2019/06/05 02:10:09;;;;;;;11.85;10.75;;;;;;;13.69;81.5332;94494.94;;;;
2019/06/05 02:11:11;;;;;;;11.65;10.6;;;;;;;13.6;82.02148;94481.25;;;;
2019/06/05 02:12:12;;;;;;;11.65;10.6;;;;;;;13.6;82.02148;94481.25;;;;
2019/06/05 02:13:13;;;;;;;11.65;10.6;;;;;;;13.6;82.02148;94481.25;;;;
2019/06/05 02:14:15;;;;;;;11.65;10.6;;;;;;;13.6;82.02148;94481.25;;;;
2019/06/05 02:15:16;;;;;;;11.65;10.6;;;;;;;13.6;82.02148;94481.25;;;;
2019/06/05 02:16:17;;;;;;;11.65;10.6;;;;;;;13.6;82.02148;94481.25;;;;
2019/06/05 02:17:18;;;;;;;11.65;10.6;;;;;;;13.6;82.02148;94481.25;;;;
2019/06/05 02:18:19;;;;;;;11.65;10.6;;;;;;;13.6;82.02148;94481.25;;;;
2019/06/05 02:19:20;;;;;;;11.65;10.6;;;;;;;13.6;82.02148;94481.25;;;;
2019/06/05 02:20:21;;;;;;;11.65;10.6;;;;;;;13.6;82.02148;94481.25;;;;
2019/06/05 02:21:22;;;;;;;11.4;10.35;;;;;;;13.58;82.67383;94457.69;;;;
2019/06/05 02:22:23;;;;;;;11.4;10.35;;;;;;;13.58;82.67383;94457.69;;;;
2019/06/05 02:23:25;;;;;;;11.4;10.35;;;;;;;13.58;82.67383;94457.69;;;;
2019/06/05 02:24:26;;;;;;;11.4;10.35;;;;;;;13.58;82.67383;94457.69;;;;
2019/06/05 02:25:27;;;;;;;11.4;10.35;;;;;;;13.58;82.67383;94457.69;;;;
2019/06/05 02:26:28;;;;;;;11.4;10.35;;;;;;;13.58;82.67383;94457.69;;;;
2019/06/05 02:27:29;;;;;;;11.4;10.35;;;;;;;13.58;82.67383;94457.69;;;;
2019/06/05 02:28:30;;;;;;;11.4;10.35;;;;;;;13.58;82.67383;94457.69;;;;
2019/06/05 02:29:32;;;;;;;11.4;10.35;;;;;;;13.58;82.67383;94457.69;;;;
2019/06/05 02:30:33;;;;;;;11.4;10.35;;;;;;;13.58;82.67383;94457.69;;;;
2019/06/05 02:31:34;;;;;;;11.6;10.5;;;;;;;13.47;83.125;94449.7;;;;
2019/06/05 02:32:36;;;;;;;11.6;10.5;;;;;;;13.47;83.125;94449.7;;;;
2019/06/05 02:33:37;;;;;;;11.6;10.5;;;;;;;13.47;83.125;94449.7;;;;
2019/06/05 02:34:38;;;;;;;11.6;10.5;;;;;;;13.47;83.125;94449.7;;;;
2019/06/05 02:35:39;;;;;;;11.6;10.5;;;;;;;13.47;83.125;94449.7;;;;
2019/06/05 02:36:41;;;;;;;11.6;10.5;;;;;;;13.47;83.125;94449.7;;;;
2019/06/05 02:37:42;;;;;;;11.6;10.5;;;;;;;13.47;83.125;94449.7;;;;
2019/06/05 02:38:43;;;;;;;11.6;10.5;;;;;;;13.47;83.125;94449.7;;;;
2019/06/05 02:39:44;;;;;;;11.6;10.5;;;;;;;13.47;83.125;94449.7;;;;
2019/06/05 02:40:45;;;;;;;11.6;10.5;;;;;;;13.47;83.125;94449.7;;;;
2019/06/05 02:41:47;;;;;;;11.6;10.5;;;;;;;13.47;83.125;94449.7;;;;
2019/06/05 02:42:48;;;;;;;11.6;10.5;;;;;;;13.47;83.125;94449.7;;;;
2019/06/05 02:43:49;;;;;;;11.6;10.5;;;;;;;13.47;83.125;94449.7;;;;
2019/06/05 02:44:50;;;;;;;11.6;10.5;;;;;;;13.47;83.125;94449.7;;;;
2019/06/05 02:45:51;;;;;;;11.6;10.5;;;;;;;13.47;83.125;94449.7;;;;
2019/06/05 02:46:52;;;;;;;11.6;10.5;;;;;;;13.47;83.125;94449.7;;;;
2019/06/05 02:47:53;;;;;;;11.6;10.5;;;;;;;13.47;83.125;94449.7;;;;
2019/06/05 02:48:54;;;;;;;11.6;10.5;;;;;;;13.47;83.125;94449.7;;;;
2019/06/05 02:49:56;;;;;;;11.6;10.5;;;;;;;13.47;83.125;94449.7;;;;
2019/06/05 02:50:57;;;;;;;11.6;10.5;;;;;;;13.47;83.125;94449.7;;;;
2019/06/05 02:51:58;;;;;;;11.6;10.5;;;;;;;13.47;83.125;94449.7;;;;
2019/06/05 02:52:59;;;;;;;11.6;10.5;;;;;;;13.47;83.125;94449.7;;;;
2019/06/05 02:54:00;;;;;;;11.6;10.5;;;;;;;13.47;83.125;94449.7;;;;
2019/06/05 02:55:01;;;;;;;11.6;10.5;;;;;;;13.47;83.125;94449.7;;;;
2019/06/05 02:56:02;;;;;;;11.6;10.5;;;;;;;13.47;83.125;94449.7;;;;
2019/06/05 02:57:03;;;;;;;11.6;10.5;;;;;;;13.47;83.125;94449.7;;;;
2019/06/05 02:58:05;;;;;;;11.6;10.5;;;;;;;13.47;83.125;94449.7;;;;
2019/06/05 02:59:06;;;;;;;11.6;10.5;;;;;;;13.47;83.125;94449.7;;;;
2019/06/05 03:00:07;;;;;;;11.6;10.5;;;;;;;13.47;83.125;94449.7;;;;
2019/06/05 03:01:09;;;;;;;11.6;10.5;;;;;;;13.47;83.125;94449.7;;;;
2019/06/05 03:02:10;;;;;;;11.6;10.5;;;;;;;13.47;83.125;94449.7;;;;
2019/06/05 03:03:11;;;;;;;11.6;10.5;;;;;;;13.47;83.125;94449.7;;;;
2019/06/05 03:04:12;;;;;;;11.9;10.7;;;;;;;13.28;84.79785;94485.64;;;;
2019/06/05 03:05:14;;;;;;;11.9;10.7;;;;;;;13.28;84.79785;94485.64;;;;
2019/06/05 03:06:15;;;;;;;11.9;10.7;;;;;;;13.28;84.79785;94485.64;;;;
2019/06/05 03:07:16;;;;;;;11.9;10.7;;;;;;;13.28;84.79785;94485.64;;;;
2019/06/05 03:08:17;;;;;;;11.9;10.7;;;;;;;13.28;84.79785;94485.64;;;;
2019/06/05 03:09:18;;;;;;;11.9;10.7;;;;;;;13.28;84.79785;94485.64;;;;
2019/06/05 03:10:19;;;;;;;11.9;10.7;;;;;;;13.28;84.79785;94485.64;;;;
2019/06/05 03:11:20;;;;;;;11.9;10.7;;;;;;;13.28;84.79785;94485.64;;;;
2019/06/05 03:12:21;;;;;;;11.9;10.7;;;;;;;13.28;84.79785;94485.64;;;;
2019/06/05 03:13:22;;;;;;;11.9;10.7;;;;;;;13.28;84.79785;94485.64;;;;
2019/06/05 03:14:23;;;;;;;11.9;10.7;;;;;;;13.28;84.79785;94485.64;;;;
2019/06/05 03:15:24;;;;;;;11.9;10.7;;;;;;;13.28;84.79785;94485.64;;;;
2019/06/05 03:16:25;;;;;;;11.9;10.7;;;;;;;13.28;84.79785;94485.64;;;;
2019/06/05 03:17:26;;;;;;;11.9;10.7;;;;;;;13.28;84.79785;94485.64;;;;
2019/06/05 03:18:27;;;;;;;11.9;10.7;;;;;;;13.28;84.79785;94485.64;;;;
2019/06/05 03:19:28;;;;;;;11.9;10.7;;;;;;;13.28;84.79785;94485.64;;;;
2019/06/05 03:20:29;;;;;;;11.9;10.7;;;;;;;13.28;84.79785;94485.64;;;;
2019/06/05 03:21:30;;;;;;;11.9;10.7;;;;;;;13.28;84.79785;94485.64;;;;
2019/06/05 03:22:31;;;;;;;11.9;10.7;;;;;;;13.28;84.79785;94485.64;;;;
2019/06/05 03:23:32;;;;;;;11.9;10.7;;;;;;;13.28;84.79785;94485.64;;;;
2019/06/05 03:24:33;;;;;;;13.2;11.9;;;;;;;13.17;85.69922;94498.92;;;;
2019/06/05 03:25:50;;;;;;;13.2;11.9;;;;;;;13.17;85.69922;94498.92;;;;
2019/06/05 03:26:51;;;;;;;13.2;11.9;;;;;;;13.17;85.69922;94498.92;;;;
2019/06/05 03:27:52;;;;;;;13.2;11.9;;;;;;;13.17;85.69922;94498.92;;;;
2019/06/05 03:28:53;;;;;;;13.2;11.9;;;;;;;13.17;85.69922;94498.92;;;;
2019/06/05 03:29:54;;;;;;;13.2;11.9;;;;;;;13.17;85.69922;94498.92;;;;
2019/06/05 03:30:55;;;;;;;13.2;11.9;;;;;;;13.17;85.69922;94498.92;;;;
2019/06/05 03:31:57;;;;;;;13.2;11.9;;;;;;;13.17;85.69922;94498.92;;;;
2019/06/05 03:32:58;;;;;;;13.2;11.9;;;;;;;13.17;85.69922;94498.92;;;;
2019/06/05 03:33:59;;;;;;;13.2;11.9;;;;;;;13.17;85.69922;94498.92;;;;
2019/06/05 03:35:00;;;;;;;12;10.8;;;;;;;13.13;86.18555;94498.24;;;;
2019/06/05 03:36:01;;;;;;;12;10.8;;;;;;;13.13;86.18555;94498.24;;;;
2019/06/05 03:37:02;;;;;;;12;10.8;;;;;;;13.13;86.18555;94498.24;;;;
2019/06/05 03:38:04;;;;;;;12;10.8;;;;;;;13.13;86.18555;94498.24;;;;
2019/06/05 03:39:05;;;;;;;12;10.8;;;;;;;13.13;86.18555;94498.24;;;;
2019/06/05 03:40:06;;;;;;;12;10.8;;;;;;;13.13;86.18555;94498.24;;;;
2019/06/05 03:41:07;;;;;;;12;10.8;;;;;;;13.13;86.18555;94498.24;;;;
2019/06/05 03:42:08;;;;;;;12;10.8;;;;;;;13.13;86.18555;94498.24;;;;
2019/06/05 03:43:09;;;;;;;12;10.8;;;;;;;13.13;86.18555;94498.24;;;;
2019/06/05 03:44:10;;;;;;;12;10.8;;;;;;;13.13;86.18555;94498.24;;;;
2019/06/05 03:45:11;;;;;;;12;10.8;;;;;;;13.13;86.18555;94498.24;;;;
2019/06/05 03:46:12;;;;;;;12.6;11.3;;;;;;;13.21;86.5752;94492.41;;;;
2019/06/05 03:47:13;;;;;;;12.6;11.3;;;;;;;13.21;86.5752;94492.41;;;;
2019/06/05 03:48:16;;;;;;;12.6;11.3;;;;;;;13.21;86.5752;94492.41;;;;
2019/06/05 03:49:17;;;;;;;12.6;11.3;;;;;;;13.21;86.5752;94492.41;;;;
2019/06/05 03:50:22;;;;;;;12.6;11.3;;;;;;;13.21;86.5752;94492.41;;;;
2019/06/05 03:51:31;;;;;;;12.6;11.3;;;;;;;13.21;86.5752;94492.41;;;;
2019/06/05 03:52:32;;;;;;;12.6;11.3;;;;;;;13.21;86.5752;94492.41;;;;
2019/06/05 03:53:33;;;;;;;12.6;11.3;;;;;;;13.21;86.5752;94492.41;;;;
2019/06/05 03:54:34;;;;;;;12.6;11.3;;;;;;;13.21;86.5752;94492.41;;;;
2019/06/05 03:55:35;;;;;;;12.6;11.3;;;;;;;13.21;86.5752;94492.41;;;;
2019/06/05 03:56:36;;;;;;;12.55;11.25;;;;;;;13.27;86.90625;94493.64;;;;
2019/06/05 03:57:37;;;;;;;12.55;11.25;;;;;;;13.27;86.90625;94493.64;;;;
2019/06/05 03:58:38;;;;;;;12.55;11.25;;;;;;;13.27;86.90625;94493.64;;;;
2019/06/05 03:59:39;;;;;;;12.55;11.25;;;;;;;13.27;86.90625;94493.64;;;;
2019/06/05 04:00:40;;;;;;;12.55;11.25;;;;;;;13.27;86.90625;94493.64;;;;
2019/06/05 04:01:42;;;;;;;12.55;11.25;;;;;;;13.27;86.90625;94493.64;;;;
2019/06/05 04:02:43;;;;;;;12.55;11.25;;;;;;;13.27;86.90625;94493.64;;;;
2019/06/05 04:03:44;;;;;;;12.55;11.25;;;;;;;13.27;86.90625;94493.64;;;;
2019/06/05 04:04:45;;;;;;;12.55;11.25;;;;;;;13.27;86.90625;94493.64;;;;
2019/06/05 04:05:46;;;;;;;12.55;11.25;;;;;;;13.27;86.90625;94493.64;;;;
2019/06/05 04:06:47;;;;;;;12.55;11.25;;;;;;;13.27;86.90625;94493.64;;;;
2019/06/05 04:07:48;;;;;;;12.55;11.25;;;;;;;13.27;86.90625;94493.64;;;;
2019/06/05 04:08:49;;;;;;;12.55;11.25;;;;;;;13.27;86.90625;94493.64;;;;
2019/06/05 04:09:50;;;;;;;12.55;11.25;;;;;;;13.27;86.90625;94493.64;;;;
2019/06/05 04:10:51;;;;;;;12.55;11.25;;;;;;;13.27;86.90625;94493.64;;;;
2019/06/05 04:11:52;;;;;;;12.55;11.25;;;;;;;13.27;86.90625;94493.64;;;;
2019/06/05 04:12:53;;;;;;;12.55;11.25;;;;;;;13.27;86.90625;94493.64;;;;
2019/06/05 04:13:54;;;;;;;12.55;11.25;;;;;;;13.27;86.90625;94493.64;;;;
2019/06/05 04:14:55;;;;;;;12.55;11.25;;;;;;;13.27;86.90625;94493.64;;;;
2019/06/05 04:15:57;;;;;;;12.55;11.25;;;;;;;13.27;86.90625;94493.64;;;;
2019/06/05 04:16:58;;;;;;;12.55;11.25;;;;;;;13.27;86.90625;94493.64;;;;
2019/06/05 04:17:59;;;;;;;11.4;10.3;;;;;;;13.56;87.55664;94505.41;;;;
2019/06/05 04:19:00;;;;;;;11.4;10.3;;;;;;;13.56;87.55664;94505.41;;;;
2019/06/05 04:20:01;;;;;;;11.4;10.3;;;;;;;13.56;87.55664;94505.41;;;;
2019/06/05 04:21:03;;;;;;;11.4;10.3;;;;;;;13.56;87.55664;94505.41;;;;
2019/06/05 04:22:04;;;;;;;11.4;10.3;;;;;;;13.56;87.55664;94505.41;;;;
2019/06/05 04:23:05;;;;;;;11.4;10.3;;;;;;;13.56;87.55664;94505.41;;;;
2019/06/05 04:24:07;;;;;;;11.4;10.3;;;;;;;13.56;87.55664;94505.41;;;;
2019/06/05 04:25:08;;;;;;;11.4;10.3;;;;;;;13.56;87.55664;94505.41;;;;
2019/06/05 04:26:09;;;;;;;11.4;10.3;;;;;;;13.56;87.55664;94505.41;;;;
2019/06/05 04:27:11;;;;;;;11.4;10.3;;;;;;;13.56;87.55664;94505.41;;;;
2019/06/05 04:28:12;;;;;;;11.4;10.3;;;;;;;13.56;87.55664;94505.41;;;;
2019/06/05 04:29:13;;;;;;;11.4;10.3;;;;;;;13.56;87.55664;94505.41;;;;
2019/06/05 04:30:14;;;;;;;11.4;10.3;;;;;;;13.56;87.55664;94505.41;;;;
2019/06/05 04:31:15;;;;;;;11.4;10.3;;;;;;;13.56;87.55664;94505.41;;;;
2019/06/05 04:32:16;;;;;;;11.4;10.3;;;;;;;13.56;87.55664;94505.41;;;;
2019/06/05 04:33:17;;;;;;;11.4;10.3;;;;;;;13.56;87.55664;94505.41;;;;
2019/06/05 04:34:18;;;;;;;11.4;10.3;;;;;;;13.56;87.55664;94505.41;;;;
2019/06/05 04:35:19;;;;;;;11.4;10.3;;;;;;;13.56;87.55664;94505.41;;;;
2019/06/05 04:36:20;;;;;;;11.4;10.3;;;;;;;13.56;87.55664;94505.41;;;;
2019/06/05 04:37:21;;;;;;;11.4;10.3;;;;;;;13.56;87.55664;94505.41;;;;
2019/06/05 04:38:22;;;;;;;11.4;10.3;;;;;;;13.56;87.55664;94505.41;;;;
2019/06/05 04:39:23;;;;;;;10.1;9.2;;;;;;;14.08;87.69141;94511.83;;;;
2019/06/05 04:40:24;;;;;;;10.1;9.2;;;;;;;14.08;87.69141;94511.83;;;;
2019/06/05 04:41:25;;;;;;;10.1;9.2;;;;;;;14.08;87.69141;94511.83;;;;
2019/06/05 04:42:26;;;;;;;10.1;9.2;;;;;;;14.08;87.69141;94511.83;;;;
2019/06/05 04:43:27;;;;;;;10.1;9.2;;;;;;;14.08;87.69141;94511.83;;;;
2019/06/05 04:44:28;;;;;;;10.1;9.2;;;;;;;14.08;87.69141;94511.83;;;;
2019/06/05 04:45:29;;;;;;;10.1;9.2;;;;;;;14.08;87.69141;94511.83;;;;
2019/06/05 04:46:31;;;;;;;10.1;9.2;;;;;;;14.08;87.69141;94511.83;;;;
2019/06/05 04:47:32;;;;;;;10.1;9.2;;;;;;;14.08;87.69141;94511.83;;;;
2019/06/05 04:48:33;;;;;;;10.1;9.2;;;;;;;14.08;87.69141;94511.83;;;;
2019/06/05 04:49:34;;;;;;;10.1;9.2;;;;;;;14.08;87.69141;94511.83;;;;
2019/06/05 04:50:35;;;;;;;10.1;9.2;;;;;;;14.08;87.69141;94511.83;;;;
2019/06/05 04:51:36;;;;;;;10.1;9.2;;;;;;;14.08;87.69141;94511.83;;;;
2019/06/05 04:52:37;;;;;;;10.1;9.2;;;;;;;14.08;87.69141;94511.83;;;;
2019/06/05 04:53:38;;;;;;;10.1;9.2;;;;;;;14.08;87.69141;94511.83;;;;
2019/06/05 04:54:39;;;;;;;10.1;9.2;;;;;;;14.08;87.69141;94511.83;;;;
2019/06/05 04:55:40;;;;;;;10.1;9.2;;;;;;;14.08;87.69141;94511.83;;;;
2019/06/05 04:56:41;;;;;;;10.1;9.2;;;;;;;14.08;87.69141;94511.83;;;;
2019/06/05 04:57:42;;;;;;;10.1;9.2;;;;;;;14.08;87.69141;94511.83;;;;
2019/06/05 04:58:43;;;;;;;10.1;9.2;;;;;;;14.08;87.69141;94511.83;;;;
2019/06/05 04:59:45;;;;;;;10.1;9.2;;;;;;;14.08;87.69141;94511.83;;;;
2019/06/05 05:00:46;;;;;;;10.1;9.2;;;;;;;14.08;87.69141;94511.83;;;;
2019/06/05 05:01:47;;;;;;;10.1;9.2;;;;;;;14.08;87.69141;94511.83;;;;
2019/06/05 05:02:48;;;;;;;10.1;9.2;;;;;;;14.08;87.69141;94511.83;;;;
2019/06/05 05:03:49;;;;;;;10.1;9.2;;;;;;;14.08;87.69141;94511.83;;;;
2019/06/05 05:04:50;;;;;;;10.1;9.2;;;;;;;14.08;87.69141;94511.83;;;;
2019/06/05 05:05:51;;;;;;;10.1;9.2;;;;;;;14.08;87.69141;94511.83;;;;
2019/06/05 05:06:52;;;;;;;10.1;9.2;;;;;;;14.08;87.69141;94511.83;;;;
2019/06/05 05:07:53;;;;;;;10.1;9.2;;;;;;;14.08;87.69141;94511.83;;;;
2019/06/05 05:08:54;;;;;;;10.1;9.2;;;;;;;14.08;87.69141;94511.83;;;;
2019/06/05 05:09:55;;;;;;;10.1;9.2;;;;;;;14.08;87.69141;94511.83;;;;
2019/06/05 05:10:56;;;;;;;9.75;8.85;;;;;;;15.41;86.8457;94537.95;;;;
2019/06/05 05:11:57;;;;;;;9.75;8.85;;;;;;;15.41;86.8457;94537.95;;;;
2019/06/05 05:12:58;;;;;;;9.75;8.85;;;;;;;15.41;86.8457;94537.95;;;;
2019/06/05 05:14:00;;;;;;;9.75;8.85;;;;;;;15.41;86.8457;94537.95;;;;
2019/06/05 05:15:01;;;;;;;9.75;8.85;;;;;;;15.41;86.8457;94537.95;;;;
2019/06/05 05:16:02;;;;;;;9.75;8.85;;;;;;;15.41;86.8457;94537.95;;;;
2019/06/05 05:17:03;;;;;;;9.75;8.85;;;;;;;15.41;86.8457;94537.95;;;;
2019/06/05 05:18:04;;;;;;;9.75;8.85;;;;;;;15.41;86.8457;94537.95;;;;
2019/06/05 05:19:05;;;;;;;9.75;8.85;;;;;;;15.41;86.8457;94537.95;;;;
2019/06/05 05:20:06;;;;;;;9.75;8.85;;;;;;;15.41;86.8457;94537.95;;;;
2019/06/05 05:21:07;;;;;;;8.15;7.35;;;;;;;15.93;86.33398;94524.42;;;;
2019/06/05 05:22:08;;;;;;;8.15;7.35;;;;;;;15.93;86.33398;94524.42;;;;
2019/06/05 05:23:09;;;;;;;8.15;7.35;;;;;;;15.93;86.33398;94524.42;;;;
2019/06/05 05:24:10;;;;;;;8.15;7.35;;;;;;;15.93;86.33398;94524.42;;;;
2019/06/05 05:25:11;;;;;;;8.15;7.35;;;;;;;15.93;86.33398;94524.42;;;;
2019/06/05 05:26:13;;;;;;;8.15;7.35;;;;;;;15.93;86.33398;94524.42;;;;
2019/06/05 05:27:14;;;;;;;8.15;7.35;;;;;;;15.93;86.33398;94524.42;;;;
2019/06/05 05:28:15;;;;;;;8.15;7.35;;;;;;;15.93;86.33398;94524.42;;;;
2019/06/05 05:29:16;;;;;;;8.15;7.35;;;;;;;15.93;86.33398;94524.42;;;;
2019/06/05 05:30:17;;;;;;;8.15;7.35;;;;;;;15.93;86.33398;94524.42;;;;
2019/06/05 05:31:18;;;;;;;8.15;7.35;;;;;;;15.93;86.33398;94524.42;;;;
2019/06/05 05:32:19;;;;;;;8.15;7.35;;;;;;;15.93;86.33398;94524.42;;;;
2019/06/05 05:33:20;;;;;;;8.15;7.35;;;;;;;15.93;86.33398;94524.42;;;;
2019/06/05 05:34:21;;;;;;;8.15;7.35;;;;;;;15.93;86.33398;94524.42;;;;
2019/06/05 05:35:22;;;;;;;8.15;7.35;;;;;;;15.93;86.33398;94524.42;;;;
2019/06/05 05:36:23;;;;;;;8.15;7.35;;;;;;;15.93;86.33398;94524.42;;;;
2019/06/05 05:37:24;;;;;;;8.15;7.35;;;;;;;15.93;86.33398;94524.42;;;;
2019/06/05 05:38:25;;;;;;;8.15;7.35;;;;;;;15.93;86.33398;94524.42;;;;
2019/06/05 05:39:27;;;;;;;8.15;7.35;;;;;;;15.93;86.33398;94524.42;;;;
2019/06/05 05:40:28;;;;;;;8.15;7.35;;;;;;;15.93;86.33398;94524.42;;;;
2019/06/05 05:41:45;;;;;;;8.15;7.35;;;;;;;15.93;86.33398;94524.42;;;;
2019/06/05 05:42:46;;;;;;;8.15;7.35;;;;;;;15.93;86.33398;94524.42;;;;
2019/06/05 05:43:47;;;;;;;8.15;7.35;;;;;;;15.93;86.33398;94524.42;;;;
2019/06/05 05:44:48;;;;;;;8.15;7.35;;;;;;;15.93;86.33398;94524.42;;;;
2019/06/05 05:45:49;;;;;;;8.15;7.35;;;;;;;15.93;86.33398;94524.42;;;;